Weather at Paradise Acres Airport [CLOSED]

Public forecast

Using degrees Fahrenheit for public forecast. Weather courtesy of forecast.io.

Closest aviation weather report (METAR) to Paradise Acres Airport

Closest report is Albuquerque International Sunport, 5.3 nm (9.8 km) ENE.

2024/07/24 20:52 (retrieved 10 minutes ago)

KABQ 242052Z 29005KT 10SM FEW090 BKN250 32/11 A3030 RMK AO2 SLP167 T03220106 56018

Closest aviation forecast (TAF) to Paradise Acres Airport

Closest forecast is Albuquerque International Sunport, 5.3 nm (9.8 km) ENE.

2024/07/24 18:22 (retrieved 3 hours ago)

TAF KABQ 241720Z 2418/2518 24006KT P6SM FEW120 FM250000 09025G35KT P6SM VCSH SCT100 FM250200 10008KT P6SM SCT120 FM250900 VRB06KT P6SM FEW150